CheckWX is a tool to help pilots better visualize weather data.  It is not intended as a substitute for an official pre-flight weather briefing.

22:18:09 UTC

KNJM METAR
Bogue Field McAlf Airport
Swansboro, North Carolina, USA
Current

21 mins ago

KNJM 152157Z AUTO 19007KT 10SM 32/24 A3004 RMK AO2 SLP174 T03170244 PNO $
Observed
Jul-15 @ 21:57 UTC
Wind
  • 190° at 7 KTS
Visibility
10 SM
Temperature
32°C / 90°F
Dewpoint
24°C / 75°F
Heat Index
38°C / 101°F
Humidity
63%
Altimeter
30.04" Hg
Pressure
1017.32 hPa
Previous

1 hour ago

KNJM 152057Z AUTO 17007KT 10SM CLR 33/24 A3005 RMK AO2 SLP177 6//// T03280244 58009 PNO
Observed
Jul-15 @ 20:57 UTC
Wind
  • 170° at 7 KTS
Visibility
10 SM
Flight Rules
VFR
Cloud Levels
  • Clear skies
Temperature
33°C / 91°F
Dewpoint
24°C / 75°F
Heat Index
39°C / 102°F
Humidity
59%
Altimeter
30.05" Hg
Pressure
1017.62 hPa
Previous

2 hours ago

KNJM 151957Z AUTO 17007KT 10SM CLR 32/24 A3006 RMK AO2 SLP182 T03220244 PNO
Observed
Jul-15 @ 19:57 UTC
Wind
  • 170° at 7 KTS
Visibility
10 SM
Flight Rules
VFR
Cloud Levels
  • Clear skies
Temperature
32°C / 90°F
Dewpoint
24°C / 75°F
Heat Index
38°C / 101°F
Humidity
63%
Altimeter
30.06" Hg
Pressure
1017.92 hPa